createdAt,value
2019-05-01T00:00:16.204Z,98138.75
2019-05-01T00:01:38.469Z,98139.47
2019-05-01T00:03:03.893Z,98132.28
2019-05-01T00:04:29.706Z,98130.19
2019-05-01T00:05:35.932Z,98130.19
2019-05-01T00:06:41.862Z,98139.39
2019-05-01T00:07:44.704Z,98139.39
2019-05-01T00:08:47.519Z,98128.28
2019-05-01T00:09:51.090Z,98136.53
2019-05-01T00:10:54.342Z,98136.53
2019-05-01T00:11:57.134Z,98129.52
2019-05-01T00:13:00.016Z,98129.52
2019-05-01T00:14:02.978Z,98125.22
2019-05-01T00:15:05.922Z,98124.16
2019-05-01T00:16:09.120Z,98130.44
2019-05-01T00:17:14.200Z,98123.41
2019-05-01T00:18:17.084Z,98123.41
2019-05-01T00:19:20.028Z,98128.85
2019-05-01T00:20:22.904Z,98127.39
2019-05-01T00:21:25.923Z,98120.38
2019-05-01T00:22:33.256Z,98120.38
2019-05-01T00:23:40.584Z,98120.63
2019-05-01T00:24:51.258Z,98120.63
2019-05-01T00:26:00.829Z,98114.03
2019-05-01T00:27:03.749Z,98120.27
2019-05-01T00:28:07.218Z,98121.34
2019-05-01T00:29:10.385Z,98123.02
2019-05-01T00:30:29.302Z,98123.02
2019-05-01T00:31:23.424Z,98123.92
2019-05-01T00:32:26.266Z,98117.56
2019-05-01T00:33:29.081Z,98120.28
2019-05-01T00:34:31.895Z,98117.16
2019-05-01T00:35:36.161Z,98109.31
2019-05-01T00:36:41.003Z,98112.79
2019-05-01T00:37:43.945Z,98107.33
2019-05-01T00:38:46.782Z,98107.33
2019-05-01T00:39:49.559Z,98104.59
2019-05-01T00:40:52.363Z,98104.59
2019-05-01T00:41:55.561Z,98110.87
2019-05-01T00:43:01.181Z,98112.34
2019-05-01T00:44:04.018Z,98111.37
2019-05-01T00:45:06.818Z,98110.41
2019-05-01T00:46:09.659Z,98111.36
2019-05-01T00:47:12.956Z,98111.66
2019-05-01T00:48:16.066Z,98112.89
2019-05-01T00:49:18.879Z,98110.55
2019-05-01T00:50:21.706Z,98105.58
2019-05-01T00:51:24.617Z,98111.55
2019-05-01T00:52:27.513Z,98107.81
2019-05-01T00:53:30.354Z,98105.58
2019-05-01T00:54:35.048Z,98107.98
2019-05-01T00:56:02.150Z,98105.73
2019-05-01T00:57:17.933Z,98105.73
2019-05-01T00:58:42.212Z,98102.83
2019-05-01T01:00:12.923Z,98104.02
2019-05-01T01:01:37.048Z,98098.41
2019-05-01T01:02:45.583Z,98100.41
2019-05-01T01:03:48.399Z,98100.41
2019-05-01T01:04:51.211Z,98091.77
2019-05-01T01:05:54.031Z,98093.88
2019-05-01T01:06:57.220Z,98087.52
2019-05-01T01:08:00.163Z,98087.52
2019-05-01T01:09:03.079Z,98095.77
2019-05-01T01:10:05.951Z,98094.91
2019-05-01T01:11:09.229Z,98097.67
2019-05-01T01:12:15.077Z,98085.85
2019-05-01T01:13:18.284Z,98100.82
2019-05-01T01:14:21.111Z,98100.06
2019-05-01T01:15:24.344Z,98098.70
2019-05-01T01:16:27.200Z,98098.30
2019-05-01T01:17:30.074Z,98092.44
2019-05-01T01:18:32.961Z,98089.98
2019-05-01T01:19:36.531Z,98089.98
2019-05-01T01:20:39.626Z,98087.31
2019-05-01T01:21:42.496Z,98083.61
2019-05-01T01:22:45.577Z,98084.00
2019-05-01T01:23:48.364Z,98083.39
2019-05-01T01:24:51.510Z,98083.39
2019-05-01T01:25:54.820Z,98088.56
2019-05-01T01:26:57.594Z,98087.27
2019-05-01T01:28:00.392Z,98087.27
2019-05-01T01:29:06.012Z,98085.21
2019-05-01T01:30:08.908Z,98087.73
2019-05-01T01:31:11.708Z,98085.92
2019-05-01T01:32:14.862Z,98080.18
2019-05-01T01:33:17.708Z,98080.81
2019-05-01T01:34:24.850Z,98081.59
2019-05-01T01:35:30.646Z,98078.73
2019-05-01T01:36:34.646Z,98078.06
2019-05-01T01:37:44.235Z,98078.06
2019-05-01T01:38:50.033Z,98082.00
2019-05-01T01:39:53.327Z,98081.03
2019-05-01T01:40:58.948Z,98083.28
2019-05-01T01:42:01.795Z,98076.74
2019-05-01T01:43:23.651Z,98072.45
2019-05-01T01:44:43.347Z,98074.80
2019-05-01T01:45:47.881Z,98074.80
2019-05-01T01:46:51.428Z,98079.60
2019-05-01T01:48:12.957Z,98079.60
2019-05-01T01:49:16.660Z,98079.78
2019-05-01T01:50:19.552Z,98081.33
2019-05-01T01:51:22.786Z,98079.33
2019-05-01T01:52:25.590Z,98078.55
2019-05-01T01:53:31.528Z,98078.55
2019-05-01T01:54:34.351Z,98080.17
2019-05-01T01:57:04.750Z,98070.11
2019-05-01T01:58:07.563Z,98069.49
2019-05-01T01:59:10.379Z,98069.77
2019-05-01T02:00:15.056Z,98066.05
2019-05-01T02:01:35.142Z,98066.63
2019-05-01T02:02:46.659Z,98064.23
2019-05-01T02:03:52.678Z,98064.23
2019-05-01T02:05:03.233Z,98073.59
2019-05-01T02:06:06.061Z,98073.59
2019-05-01T02:07:08.861Z,98064.64
2019-05-01T02:08:11.676Z,98061.93
2019-05-01T02:09:14.907Z,98056.38
2019-05-01T02:10:17.792Z,98058.06
2019-05-01T02:11:20.636Z,98061.93
2019-05-01T02:12:23.453Z,98060.95
2019-05-01T02:13:26.263Z,98060.64
2019-05-01T02:14:29.166Z,98057.59
2019-05-01T02:15:32.382Z,98059.85
2019-05-01T02:16:35.618Z,98061.89
2019-05-01T02:17:38.394Z,98060.05
2019-05-01T02:18:41.233Z,98061.02
2019-05-01T02:19:44.065Z,98063.91
2019-05-01T02:20:46.938Z,98057.99
2019-05-01T02:21:50.134Z,98052.64
2019-05-01T02:22:52.964Z,98053.80
2019-05-01T02:23:55.760Z,98059.41
2019-05-01T02:24:58.602Z,98061.01
2019-05-01T02:26:04.391Z,98059.52
2019-05-01T02:27:14.675Z,98061.31
2019-05-01T02:28:36.178Z,98057.80
2019-05-01T02:29:44.586Z,98055.83
2019-05-01T02:30:49.501Z,98057.42
2019-05-01T02:31:52.858Z,98057.98
2019-05-01T02:32:55.721Z,98053.38
2019-05-01T02:33:59.133Z,98054.48
2019-05-01T02:35:02.011Z,98057.37
2019-05-01T02:36:04.838Z,98059.11
2019-05-01T02:37:08.016Z,98058.16
2019-05-01T02:38:10.830Z,98056.58
2019-05-01T02:39:13.628Z,98058.97
2019-05-01T02:40:16.511Z,98054.58
2019-05-01T02:41:19.379Z,98053.28
2019-05-01T02:42:22.208Z,98050.30
2019-05-01T02:43:25.108Z,98054.75
2019-05-01T02:44:28.004Z,98055.17
2019-05-01T02:45:30.786Z,98050.02
2019-05-01T02:46:33.657Z,98050.03
2019-05-01T02:47:36.443Z,98049.33
2019-05-01T02:48:39.255Z,98056.33
2019-05-01T02:49:42.078Z,98056.33
2019-05-01T02:50:44.892Z,98049.59
2019-05-01T02:51:48.553Z,98052.59
2019-05-01T02:52:51.789Z,98049.30
2019-05-01T02:53:54.613Z,98052.66
2019-05-01T02:54:58.300Z,98052.16
2019-05-01T02:56:19.936Z,98052.35
2019-05-01T02:57:23.451Z,98051.38
2019-05-01T02:58:26.220Z,98055.45
2019-05-01T02:59:29.041Z,98053.42
2019-05-01T03:00:31.832Z,98056.28
2019-05-01T03:01:46.449Z,98056.54
2019-05-01T03:02:39.546Z,98061.38
2019-05-01T03:03:42.836Z,98061.38
2019-05-01T03:04:46.135Z,98051.41
2019-05-01T03:05:49.371Z,98055.13
2019-05-01T03:06:52.295Z,98055.13
2019-05-01T03:07:55.069Z,98051.31
2019-05-01T03:08:57.891Z,98052.27
2019-05-01T03:10:01.101Z,98047.47
2019-05-01T03:11:03.923Z,98051.42
2019-05-01T03:12:07.481Z,98056.13
2019-05-01T03:13:10.820Z,98052.73
2019-05-01T03:14:13.789Z,98052.73
2019-05-01T03:15:34.222Z,98055.92
2019-05-01T03:16:37.164Z,98045.70
2019-05-01T03:18:02.464Z,98053.45
2019-05-01T03:19:07.280Z,98057.29
2019-05-01T03:20:27.758Z,98060.08
2019-05-01T03:21:36.830Z,98048.30
2019-05-01T03:22:45.619Z,98043.36
2019-05-01T03:24:10.003Z,98049.59
2019-05-01T03:25:12.966Z,98049.59
2019-05-01T03:26:17.647Z,98044.46
2019-05-01T03:27:20.448Z,98047.81
2019-05-01T03:28:23.806Z,98047.81
2019-05-01T03:29:27.016Z,98045.39
2019-05-01T03:30:30.151Z,98047.19
2019-05-01T03:31:33.783Z,98047.19
2019-05-01T03:32:36.719Z,98041.88
2019-05-01T03:33:39.601Z,98041.88
2019-05-01T03:34:43.035Z,98050.59
2019-05-01T03:35:45.924Z,98052.53
2019-05-01T03:36:48.742Z,98050.16
2019-05-01T03:37:51.569Z,98051.96
2019-05-01T03:38:54.488Z,98044.58
2019-05-01T03:39:57.402Z,98046.81
2019-05-01T03:41:00.809Z,98045.98
2019-05-01T03:42:03.658Z,98044.90
2019-05-01T03:43:06.719Z,98047.13
2019-05-01T03:44:09.601Z,98038.55
2019-05-01T03:45:12.580Z,98038.55
2019-05-01T03:46:15.574Z,98043.48
2019-05-01T03:47:19.467Z,98042.23
2019-05-01T03:48:22.336Z,98041.89
2019-05-01T03:49:25.189Z,98039.77
2019-05-01T03:50:28.030Z,98039.11
2019-05-01T03:51:31.024Z,98036.36
2019-05-01T03:52:34.013Z,98041.61
2019-05-01T03:53:37.268Z,98037.05
2019-05-01T03:54:40.813Z,98037.86
2019-05-01T03:55:43.717Z,98039.28
2019-05-01T03:56:46.983Z,98043.60
2019-05-01T03:57:49.796Z,98036.25
2019-05-01T03:58:55.053Z,98042.30
2019-05-01T03:59:58.422Z,98037.85
2019-05-01T04:01:17.328Z,98040.38
2019-05-01T04:02:48.089Z,98042.24
2019-05-01T04:03:53.625Z,98043.59
2019-05-01T04:04:56.479Z,98039.95
2019-05-01T04:05:59.288Z,98041.21
2019-05-01T04:07:03.977Z,98041.21
2019-05-01T04:08:06.843Z,98037.85
2019-05-01T04:09:09.652Z,98039.98
2019-05-01T04:10:12.447Z,98038.69
2019-05-01T04:11:15.266Z,98039.28
2019-05-01T04:12:18.137Z,98037.81
2019-05-01T04:13:21.346Z,98029.95
2019-05-01T04:14:24.182Z,98038.95
2019-05-01T04:15:27.020Z,98038.90
2019-05-01T04:16:30.220Z,98041.75
2019-05-01T04:17:39.679Z,98046.75
2019-05-01T04:18:42.491Z,98042.33
2019-05-01T04:19:45.840Z,98042.84
2019-05-01T04:20:48.682Z,98044.61
2019-05-01T04:21:56.863Z,98044.16
2019-05-01T04:22:59.699Z,98038.93
2019-05-01T04:24:02.913Z,98039.97
2019-05-01T04:25:05.787Z,98036.58
2019-05-01T04:26:11.464Z,98036.58
2019-05-01T04:27:20.347Z,98038.58
2019-05-01T04:28:40.445Z,98036.02
2019-05-01T04:29:55.645Z,98037.75
2019-05-01T04:31:08.039Z,98041.50
2019-05-01T04:32:18.655Z,98036.93
2019-05-01T04:33:21.988Z,98039.84
2019-05-01T04:34:30.922Z,98039.02
2019-05-01T04:35:53.589Z,98041.86
2019-05-01T04:36:57.204Z,98037.88
2019-05-01T04:38:00.711Z,98040.36
2019-05-01T04:39:05.132Z,98041.50
2019-05-01T04:40:08.448Z,98040.52
2019-05-01T04:41:11.839Z,98046.00
2019-05-01T04:42:16.598Z,98044.80
2019-05-01T04:43:20.011Z,98051.08
2019-05-01T04:44:22.915Z,98051.08
2019-05-01T04:45:25.822Z,98051.55
2019-05-01T04:46:28.941Z,98050.52
2019-05-01T04:47:31.746Z,98050.52
2019-05-01T04:48:34.659Z,98048.70
2019-05-01T04:49:37.932Z,98048.70
2019-05-01T04:50:42.663Z,98048.21
2019-05-01T04:51:45.446Z,98043.11
2019-05-01T04:52:49.341Z,98050.97
2019-05-01T04:53:52.615Z,98050.97
2019-05-01T04:54:55.511Z,98045.25
2019-05-01T04:55:58.805Z,98049.20
2019-05-01T04:57:03.513Z,98043.30
2019-05-01T04:58:06.575Z,98043.30
2019-05-01T04:59:13.039Z,98046.66
2019-05-01T05:00:15.864Z,98053.89
2019-05-01T05:01:18.678Z,98055.92
2019-05-01T05:02:29.574Z,98053.32
2019-05-01T05:03:32.371Z,98049.98
2019-05-01T05:04:35.569Z,98054.73
2019-05-01T05:05:39.297Z,98047.77
2019-05-01T05:06:42.159Z,98051.92
2019-05-01T05:07:45.036Z,98051.92
2019-05-01T05:08:47.818Z,98052.28
2019-05-01T05:09:50.744Z,98052.28
2019-05-01T05:10:54.826Z,98052.07
2019-05-01T05:12:05.342Z,98048.84
2019-05-01T05:13:18.668Z,98053.52
2019-05-01T05:14:28.213Z,98048.52
2019-05-01T05:15:47.485Z,98045.84
2019-05-01T05:17:11.990Z,98049.79
2019-05-01T05:18:15.262Z,98044.01
2019-05-01T05:19:18.066Z,98050.21
2019-05-01T05:20:20.873Z,98047.11
2019-05-01T05:21:23.734Z,98048.58
2019-05-01T05:22:26.977Z,98054.05
2019-05-01T05:23:29.825Z,98053.84
2019-05-01T05:24:33.066Z,98053.86
2019-05-01T05:25:35.878Z,98053.86
2019-05-01T05:26:38.731Z,98049.47
2019-05-01T05:27:41.627Z,98055.75
2019-05-01T05:28:44.430Z,98056.27
2019-05-01T05:29:47.250Z,98053.55
2019-05-01T05:44:19.259Z,98055.93
2019-05-01T05:45:22.132Z,98054.34
2019-05-01T05:46:25.016Z,98058.17
2019-05-01T05:47:28.109Z,98056.70
2019-05-01T05:48:30.890Z,98056.70
2019-05-01T05:49:35.170Z,98055.59
2019-05-01T05:50:43.558Z,98055.63
2019-05-01T05:51:52.276Z,98057.05
2019-05-01T05:52:57.719Z,98060.02
2019-05-01T05:54:07.404Z,98051.30
2019-05-01T05:55:27.950Z,98051.30
2019-05-01T05:56:35.418Z,98057.87
2019-05-01T05:57:57.315Z,98055.27
2019-05-01T05:59:04.770Z,98052.76
2019-05-01T06:00:25.140Z,98052.16
2019-05-01T06:01:46.492Z,98052.16
2019-05-01T06:02:56.012Z,98052.42
2019-05-01T06:04:19.483Z,98052.42
2019-05-01T06:05:50.233Z,98049.86
2019-05-01T06:07:04.939Z,98049.86
2019-05-01T06:08:27.250Z,98048.22
2019-05-01T06:09:38.080Z,98054.10
2019-05-01T06:10:47.884Z,98054.10
2019-05-01T06:12:27.447Z,98048.70
2019-05-01T06:13:47.756Z,98048.70
2019-05-01T06:15:02.412Z,98056.15
2019-05-01T06:16:16.272Z,98048.72
2019-05-01T06:17:28.675Z,98048.72
2019-05-01T06:18:39.380Z,98045.48
2019-05-01T06:19:56.736Z,98049.45
2019-05-01T06:21:08.739Z,98046.12
2019-05-01T06:22:45.135Z,98049.77
2019-05-01T06:24:07.396Z,98044.09
2019-05-01T06:25:22.546Z,98052.66
2019-05-01T06:26:37.453Z,98052.66
2019-05-01T06:27:39.459Z,98049.00
2019-05-01T06:28:42.287Z,98047.23
2019-05-01T06:29:46.004Z,98047.23
2019-05-01T06:30:49.239Z,98039.74
2019-05-01T06:31:53.985Z,98048.52
2019-05-01T06:33:04.291Z,98043.41
2019-05-01T06:34:04.226Z,98043.41
2019-05-01T06:35:07.087Z,98038.86
2019-05-01T06:36:13.214Z,98045.44
2019-05-01T06:37:20.866Z,98042.40
2019-05-01T06:38:22.384Z,98039.89
2019-05-01T06:39:25.412Z,98039.42
2019-05-01T06:40:44.899Z,98037.48
2019-05-01T06:41:48.086Z,98039.73
2019-05-01T06:42:51.183Z,98036.06
2019-05-01T06:44:03.891Z,98035.20
2019-05-01T06:45:13.114Z,98035.20
2019-05-01T06:46:40.469Z,98039.81
2019-05-01T06:47:52.578Z,98036.64
2019-05-01T06:49:10.672Z,98036.64
2019-05-01T06:50:41.571Z,98035.45
2019-05-01T06:51:53.301Z,98036.50
2019-05-01T06:52:53.670Z,98034.29
2019-05-01T06:54:03.965Z,98041.89
2019-05-01T06:55:07.178Z,98033.42
2019-05-01T06:56:10.034Z,98035.72
2019-05-01T06:57:13.666Z,98035.72
2019-05-01T06:58:20.473Z,98027.89
2019-05-01T06:59:26.163Z,98027.89
2019-05-01T07:00:26.437Z,98028.73
2019-05-01T07:01:29.350Z,98030.52
2019-05-01T07:02:34.908Z,98037.95
2019-05-01T07:03:40.831Z,98031.02
2019-05-01T07:04:42.717Z,98033.63
2019-05-01T07:05:49.068Z,98033.63
2019-05-01T07:06:50.744Z,98028.34
2019-05-01T07:07:54.971Z,98035.19
2019-05-01T07:08:57.927Z,98026.56
2019-05-01T07:10:01.015Z,98028.75
2019-05-01T07:11:03.826Z,98029.80
2019-05-01T07:12:09.001Z,98029.80
2019-05-01T07:13:11.915Z,98025.15
2019-05-01T07:14:17.486Z,98029.55
2019-05-01T07:15:22.033Z,98029.55
2019-05-01T07:16:24.075Z,98034.48
2019-05-01T07:17:27.299Z,98024.70
2019-05-01T07:18:30.245Z,98027.20
2019-05-01T07:20:03.823Z,98033.01
2019-05-01T07:21:06.671Z,98030.86
2019-05-01T07:22:09.573Z,98028.72
2019-05-01T07:23:12.720Z,98027.89
2019-05-01T07:24:18.689Z,98030.88
2019-05-01T07:25:21.575Z,98021.88
2019-05-01T07:26:24.402Z,98024.98
2019-05-01T07:27:27.833Z,98024.08
2019-05-01T07:28:34.416Z,98024.59
2019-05-01T07:29:39.829Z,98020.37
2019-05-01T07:31:05.251Z,98020.37
2019-05-01T07:32:08.314Z,98020.37
2019-05-01T07:33:12.036Z,98023.45
2019-05-01T07:34:16.948Z,98020.05
2019-05-01T07:35:21.650Z,98016.05
2019-05-01T07:36:28.107Z,98015.23
2019-05-01T07:37:33.335Z,98015.23
2019-05-01T07:38:38.293Z,98020.72
2019-05-01T07:39:44.929Z,98015.51
2019-05-01T07:40:46.037Z,98012.19
2019-05-01T07:41:48.832Z,98007.41
2019-05-01T07:42:55.256Z,98007.41
2019-05-01T07:44:17.621Z,98009.11
2019-05-01T07:45:34.035Z,98008.95
2019-05-01T07:47:06.617Z,98010.02
2019-05-01T07:48:12.249Z,98008.39
2019-05-01T07:49:18.823Z,98008.39
2019-05-01T07:50:24.276Z,98004.68
2019-05-01T07:51:26.245Z,98004.68
2019-05-01T07:52:29.385Z,98003.97
2019-05-01T07:53:32.278Z,98006.30
2019-05-01T07:54:37.780Z,98009.40
2019-05-01T07:55:39.547Z,98007.07
2019-05-01T07:56:44.908Z,98007.07
2019-05-01T07:57:48.819Z,98010.90
2019-05-01T07:58:51.927Z,98006.13
2019-05-01T07:59:58.338Z,98004.68
2019-05-01T08:01:13.176Z,97994.23
2019-05-01T08:02:16.125Z,98003.27
2019-05-01T08:03:20.618Z,98005.77
2019-05-01T08:04:35.805Z,97991.90
2019-05-01T08:05:31.211Z,97998.38
2019-05-01T08:06:34.053Z,97997.43
2019-05-01T08:07:36.853Z,97999.35
2019-05-01T08:08:40.963Z,97999.62
2019-05-01T08:09:45.763Z,97997.37
2019-05-01T08:10:49.012Z,97997.37
2019-05-01T08:11:54.624Z,98001.58
2019-05-01T08:13:01.954Z,98001.29
2019-05-01T08:14:07.531Z,97991.86
2019-05-01T08:15:09.555Z,97991.86
2019-05-01T08:16:15.434Z,97992.90
2019-05-01T08:17:24.688Z,98000.91
2019-05-01T08:18:49.704Z,98000.20
2019-05-01T08:20:00.282Z,98003.47
2019-05-01T08:21:26.223Z,98003.47
2019-05-01T08:22:38.896Z,97999.73
2019-05-01T08:23:42.571Z,98000.73
2019-05-01T08:24:46.053Z,97995.46
2019-05-01T08:25:48.850Z,98001.07
2019-05-01T08:26:51.677Z,98001.07
2019-05-01T08:28:03.974Z,97996.63
2019-05-01T08:29:25.994Z,98000.53
2019-05-01T08:30:48.063Z,97997.13
2019-05-01T08:32:03.480Z,97998.91
2019-05-01T08:33:27.800Z,97998.91
2019-05-01T08:34:31.382Z,97997.47
2019-05-01T08:35:37.712Z,97988.30
2019-05-01T08:36:42.574Z,97992.25
2019-05-01T08:37:45.307Z,97992.25
2019-05-01T08:38:51.759Z,97989.99
2019-05-01T08:39:54.586Z,97978.94
2019-05-01T08:40:57.755Z,97990.23
2019-05-01T08:42:03.057Z,97992.06
2019-05-01T08:43:05.688Z,97988.39
2019-05-01T08:44:09.138Z,97986.84
2019-05-01T08:45:40.776Z,97987.59
2019-05-01T08:47:03.088Z,97986.19
2019-05-01T08:48:16.761Z,97991.89
2019-05-01T08:49:41.741Z,97989.65
2019-05-01T08:50:44.701Z,97992.75
2019-05-01T08:51:47.498Z,97995.67
2019-05-01T08:52:50.815Z,97995.67
2019-05-01T08:53:57.876Z,97990.81
2019-05-01T08:55:04.315Z,97986.70
2019-05-01T08:56:06.315Z,97981.98
2019-05-01T08:57:09.204Z,97984.20
2019-05-01T08:58:13.964Z,97975.83
2019-05-01T08:59:19.436Z,97975.83
2019-05-01T09:00:21.170Z,97980.11
2019-05-01T09:01:24.312Z,97975.95
2019-05-01T09:02:27.474Z,97975.95
2019-05-01T09:03:30.440Z,97984.67
2019-05-01T09:04:33.346Z,97975.20
2019-05-01T09:05:36.531Z,97961.31
2019-05-01T09:06:43.833Z,97972.35
2019-05-01T09:07:44.421Z,97972.70
2019-05-01T09:08:47.875Z,97965.33
2019-05-01T09:09:54.979Z,97965.33
2019-05-01T09:11:00.226Z,97964.24
2019-05-01T09:12:06.841Z,97952.75
2019-05-01T09:13:08.506Z,97952.47
2019-05-01T09:14:16.168Z,97941.21
2019-05-01T09:15:23.844Z,97954.11
2019-05-01T09:16:28.481Z,97954.11
2019-05-01T09:17:34.008Z,97954.11
2019-05-01T09:18:37.047Z,97953.90
2019-05-01T09:19:43.884Z,97953.45
2019-05-01T09:20:49.169Z,97961.86
2019-05-01T09:21:54.831Z,97961.86
2019-05-01T09:22:57.886Z,97957.38
2019-05-01T09:24:01.403Z,97955.69
2019-05-01T09:25:04.693Z,97955.69
2019-05-01T09:26:25.376Z,97949.31
2019-05-01T09:27:59.554Z,97939.22
2019-05-01T09:29:10.945Z,97940.02
2019-05-01T09:30:26.784Z,97944.03
2019-05-01T09:31:34.036Z,97947.02
2019-05-01T09:32:35.489Z,97944.46
2019-05-01T09:33:38.434Z,97939.05
2019-05-01T09:34:44.411Z,97939.05
2019-05-01T09:35:55.498Z,97922.84
2019-05-01T09:36:54.949Z,97942.06
2019-05-01T09:37:59.839Z,97950.56
2019-05-01T09:39:03.077Z,97950.56
2019-05-01T09:40:09.102Z,97943.52
2019-05-01T09:41:13.914Z,97944.50
2019-05-01T09:42:23.191Z,97946.81
2019-05-01T09:43:21.793Z,97941.45
2019-05-01T09:44:25.277Z,97941.45
2019-05-01T09:45:29.763Z,97940.16
2019-05-01T09:46:32.880Z,97939.38
2019-05-01T09:47:35.970Z,97939.38
2019-05-01T09:48:57.725Z,97934.86
2019-05-01T09:50:02.813Z,97940.81
2019-05-01T09:51:20.253Z,97939.50
2019-05-01T09:52:40.315Z,97929.64
2019-05-01T09:54:14.592Z,97934.30
2019-05-01T09:55:29.089Z,97936.50
2019-05-01T09:56:38.483Z,97931.19
2019-05-01T09:57:42.890Z,97940.16
2019-05-01T09:58:48.688Z,97940.16
2019-05-01T09:59:52.085Z,97926.31
2019-05-01T10:00:58.443Z,97926.31
2019-05-01T10:02:07.918Z,97929.75
2019-05-01T10:03:13.037Z,97928.43
2019-05-01T10:04:18.270Z,97932.02
2019-05-01T10:05:28.588Z,97925.36
2019-05-01T10:06:26.104Z,97928.37
2019-05-01T10:07:32.897Z,97935.83
2019-05-01T10:08:39.914Z,97934.70
2019-05-01T10:09:40.334Z,97934.70
2019-05-01T10:10:50.000Z,97943.95
2019-05-01T10:11:57.160Z,97938.13
2019-05-01T10:12:59.986Z,97933.38
2019-05-01T10:14:09.273Z,97927.59
2019-05-01T10:15:15.726Z,97938.32
2019-05-01T10:16:21.533Z,97938.32
2019-05-01T10:17:24.478Z,97931.99
2019-05-01T10:18:30.431Z,97923.23
2019-05-01T10:19:33.310Z,97931.77
2019-05-01T10:20:36.181Z,97926.64
2019-05-01T10:21:39.863Z,97926.89
2019-05-01T10:22:42.749Z,97923.12
2019-05-01T10:23:47.092Z,97923.12
2019-05-01T10:24:59.185Z,97928.39
2019-05-01T10:26:07.204Z,97928.39
2019-05-01T10:27:12.575Z,97924.33
2019-05-01T10:28:23.863Z,97923.84
2019-05-01T10:29:50.334Z,97919.46
2019-05-01T10:42:51.259Z,97931.56
2019-05-01T10:43:57.839Z,97926.19
2019-05-01T10:45:02.952Z,97908.84
2019-05-01T10:46:05.916Z,97907.30
2019-05-01T10:47:08.728Z,97907.30
2019-05-01T10:48:11.991Z,97894.07
2019-05-01T10:49:15.195Z,97894.17
2019-05-01T10:50:18.018Z,97894.17
2019-05-01T10:51:21.295Z,97896.23
2019-05-01T10:52:25.495Z,97890.99
2019-05-01T10:53:30.925Z,97887.73
2019-05-01T10:54:34.168Z,97895.48
2019-05-01T10:55:43.104Z,97885.88
2019-05-01T10:56:46.078Z,97885.88
2019-05-01T10:57:50.777Z,97893.34
2019-05-01T10:58:53.608Z,97892.65
2019-05-01T10:59:56.455Z,97889.28
2019-05-01T11:01:07.379Z,97894.27
2019-05-01T11:02:11.681Z,97887.22
2019-05-01T11:03:14.636Z,97887.22
2019-05-01T11:04:20.359Z,97874.27
2019-05-01T11:05:23.247Z,97881.02
2019-05-01T11:06:29.482Z,97882.75
2019-05-01T11:07:35.429Z,97875.77
2019-05-01T11:08:38.924Z,97872.11
2019-05-01T11:09:41.918Z,97874.48
2019-05-01T11:10:44.847Z,97865.77
2019-05-01T11:11:47.665Z,97865.77
2019-05-01T11:12:50.479Z,97881.38
2019-05-01T11:13:54.566Z,97877.75
2019-05-01T11:14:59.351Z,97878.23
2019-05-01T11:16:02.377Z,97878.45
2019-05-01T11:17:09.355Z,97876.87
2019-05-01T11:18:12.297Z,97875.67
2019-05-01T11:19:15.633Z,97876.52
2019-05-01T11:20:18.739Z,97870.35
2019-05-01T11:21:24.930Z,97870.35
2019-05-01T11:22:28.094Z,97870.01
2019-05-01T11:23:34.276Z,97856.48
2019-05-01T11:24:37.256Z,97858.08
2019-05-01T11:25:40.382Z,97858.45
2019-05-01T11:26:43.602Z,97850.17
2019-05-01T11:27:46.474Z,97850.17
2019-05-01T11:28:49.491Z,97855.88
2019-05-01T11:29:52.311Z,97855.69
2019-05-01T11:30:55.223Z,97861.89
2019-05-01T11:32:25.792Z,97865.22
2019-05-01T11:33:45.764Z,97854.97
2019-05-01T11:34:58.394Z,97858.17
2019-05-01T11:36:14.685Z,97859.37
2019-05-01T11:37:42.278Z,97857.66
2019-05-01T11:39:04.469Z,97856.69
2019-05-01T11:40:34.033Z,97854.50
2019-05-01T11:41:46.413Z,97847.38
2019-05-01T11:43:02.787Z,97846.89
2019-05-01T11:44:28.977Z,97837.22
2019-05-01T11:45:33.110Z,97841.44
2019-05-01T11:46:36.354Z,97848.80
2019-05-01T11:47:39.279Z,97848.48
2019-05-01T11:48:44.403Z,97851.84
2019-05-01T11:49:47.256Z,97851.84
2019-05-01T11:50:51.776Z,97859.48
2019-05-01T11:51:55.995Z,97851.75
2019-05-01T11:52:59.132Z,97856.80
2019-05-01T11:54:02.575Z,97859.30
2019-05-01T11:55:22.505Z,97859.30
2019-05-01T11:56:28.524Z,97850.55
2019-05-01T11:57:33.290Z,97845.45
2019-05-01T11:58:36.207Z,97845.65
2019-05-01T11:59:42.070Z,97845.65
2019-05-01T12:00:46.270Z,97843.28
2019-05-01T12:01:50.917Z,97841.43
2019-05-01T12:03:03.322Z,97837.53
2019-05-01T12:04:06.690Z,97839.80
2019-05-01T12:05:10.166Z,97841.67
2019-05-01T12:06:22.697Z,97837.88
2019-05-01T12:07:21.296Z,97840.98
2019-05-01T12:08:24.802Z,97827.09
2019-05-01T12:09:29.622Z,97832.73
2019-05-01T12:10:33.425Z,97832.73
2019-05-01T12:11:38.083Z,97829.95
2019-05-01T12:12:41.649Z,97830.40
2019-05-01T12:13:44.915Z,97836.19
2019-05-01T12:14:48.037Z,97843.55
2019-05-01T12:15:59.226Z,97843.34
2019-05-01T12:17:13.316Z,97833.77
2019-05-01T12:18:17.398Z,97841.06
2019-05-01T12:19:22.485Z,97841.06
2019-05-01T12:20:29.339Z,97834.46
2019-05-01T12:21:31.436Z,97841.64
2019-05-01T12:22:35.357Z,97828.86
2019-05-01T12:23:39.872Z,97828.86
2019-05-01T12:24:43.238Z,97829.97
2019-05-01T12:25:46.514Z,97826.03
2019-05-01T12:26:50.352Z,97824.50
2019-05-01T12:27:53.265Z,97820.94
2019-05-01T12:29:00.069Z,97823.35
2019-05-01T12:30:04.161Z,97826.55
2019-05-01T12:31:07.399Z,97826.55
2019-05-01T12:32:10.224Z,97816.77
2019-05-01T12:33:13.026Z,97820.80
2019-05-01T12:35:45.139Z,97828.35
2019-05-01T12:36:48.360Z,97813.16
2019-05-01T12:37:55.151Z,97813.16
2019-05-01T12:38:57.038Z,97816.36
2019-05-01T12:40:02.716Z,97808.37
2019-05-01T12:41:33.206Z,97806.53
2019-05-01T12:42:39.666Z,97801.90
2019-05-01T12:43:42.544Z,97794.24
2019-05-01T12:44:49.786Z,97794.24
2019-05-01T12:45:55.573Z,97803.31
2019-05-01T12:47:24.868Z,97800.70
2019-05-01T12:48:27.824Z,97798.05
2019-05-01T12:49:31.102Z,97786.33
2019-05-01T12:50:35.810Z,97789.47
2019-05-01T12:51:43.790Z,97807.83
2019-05-01T12:53:10.368Z,97807.83
2019-05-01T12:54:22.014Z,97794.27
2019-05-01T12:55:32.279Z,97803.16
2019-05-01T12:56:39.975Z,97801.81
2019-05-01T12:57:47.260Z,97800.36
2019-05-01T12:59:01.330Z,97796.82
2019-05-01T13:00:14.506Z,97798.70
2019-05-01T13:01:41.123Z,97798.06
2019-05-01T13:02:47.831Z,97798.06
2019-05-01T13:03:51.994Z,97795.27
2019-05-01T13:04:57.835Z,97798.37
2019-05-01T13:06:00.624Z,97788.33
2019-05-01T13:07:08.067Z,97790.31
2019-05-01T13:08:12.504Z,97786.66
2019-05-01T13:09:15.350Z,97783.27
2019-05-01T13:10:18.840Z,97802.22
2019-05-01T13:11:22.070Z,97791.79
2019-05-01T13:12:26.265Z,97791.86
2019-05-01T13:13:29.572Z,97784.97
2019-05-01T13:14:32.398Z,97784.97
2019-05-01T13:15:37.588Z,97782.64
2019-05-01T13:16:43.474Z,97790.44
2019-05-01T13:17:49.100Z,97768.20
2019-05-01T13:18:52.923Z,97768.20
2019-05-01T13:19:58.218Z,97763.42
2019-05-01T13:21:08.985Z,97767.55
2019-05-01T13:22:11.875Z,97767.55
2019-05-01T13:23:14.750Z,97796.38
2019-05-01T13:24:19.915Z,97775.31
2019-05-01T13:25:22.886Z,97792.92
2019-05-01T13:26:40.128Z,97792.92
2019-05-01T13:27:54.859Z,97781.20
2019-05-01T13:29:02.187Z,97781.20
2019-05-01T13:30:22.151Z,97775.11
2019-05-01T13:31:42.471Z,97777.42